Time;durP1;ratioP1;P1;durP2;ratioP2;P2;SDS_P1;SDS_P2;PMS_P1;PMS_P2;Temp;Humidity;BMP_temperature;BMP_pressure;BME280_temperature;BME280_humidity;BME280_pressure;Samples;Min_cycle;Max_cycle;Signal;HPM_P1;HPM_P2
2022/04/25 00:01:26;;;;;;;0.95;0.35;;;;;;;;;;4982020;28;20042;-68
2022/04/25 00:03:52;;;;;;;0.30;0.30;;;;;;;;;;4982573;28;20097;-69
2022/04/25 00:06:17;;;;;;;0.28;0.28;;;;;;;;;;4982640;28;20081;-69
2022/04/25 00:08:42;;;;;;;0.30;0.30;;;;;;;;;;4981685;28;20042;-69
2022/04/25 00:11:08;;;;;;;0.20;0.20;;;;;;;;;;4982980;28;20038;-69
2022/04/25 00:13:33;;;;;;;0.25;0.25;;;;;;;;;;4981531;28;20042;-68
2022/04/25 00:16:00;;;;;;;0.17;0.17;;;;;;;;;;4982172;28;20057;-69
2022/04/25 00:18:25;;;;;;;0.20;0.20;;;;;;;;;;4982139;28;20583;-69
2022/04/25 00:20:51;;;;;;;0.30;0.30;;;;;;;;;;4982230;28;20038;-69
2022/04/25 00:23:16;;;;;;;0.35;0.20;;;;;;;;;;4981871;28;20038;-69
2022/04/25 00:25:42;;;;;;;0.22;0.22;;;;;;;;;;4981764;28;20038;-70
2022/04/25 00:28:07;;;;;;;0.30;0.30;;;;;;;;;;4981663;28;20045;-69
2022/04/25 00:30:33;;;;;;;0.30;0.20;;;;;;;;;;4982180;28;20091;-69
2022/04/25 00:32:59;;;;;;;0.10;0.10;;;;;;;;;;4982490;28;20092;-69
2022/04/25 00:35:25;;;;;;;0.30;0.30;;;;;;;;;;4980853;28;20263;-69
2022/04/25 00:37:51;;;;;;;0.30;0.30;;;;;;;;;;4981289;28;20173;-69
2022/04/25 00:40:22;;;;;;;0.10;0.10;;;;;;;;;;4982336;28;20151;-69
2022/04/25 00:42:48;;;;;;;0.20;0.20;;;;;;;;;;4981842;28;20049;-68
2022/04/25 00:45:14;;;;;;;2.55;0.50;;;;;;;;;;4980637;28;20034;-69
2022/04/25 00:47:41;;;;;;;0.30;0.30;;;;;;;;;;4981646;28;20486;-69
2022/04/25 00:50:08;;;;;;;4.38;0.38;;;;;;;;;;4981245;28;20372;-69
2022/04/25 00:52:34;;;;;;;0.20;0.20;;;;;;;;;;4981957;28;20042;-69
2022/04/25 00:55:01;;;;;;;0.90;0.20;;;;;;;;;;4981604;28;20038;-69
2022/04/25 00:57:27;;;;;;;0.10;0.10;;;;;;;;;;4980719;28;20117;-69
2022/04/25 00:59:53;;;;;;;0.20;0.20;;;;;;;;;;4980965;28;20116;-69
2022/04/25 01:02:19;;;;;;;0.30;0.13;;;;;;;;;;4981742;28;20042;-69
2022/04/25 01:04:44;;;;;;;0.20;0.20;;;;;;;;;;4981362;28;20053;-69
2022/04/25 01:07:10;;;;;;;0.35;0.20;;;;;;;;;;4980763;28;20038;-69
2022/04/25 01:09:36;;;;;;;0.20;0.20;;;;;;;;;;4980818;28;20212;-69
2022/04/25 01:12:02;;;;;;;0.13;0.13;;;;;;;;;;4981531;28;20042;-69
2022/04/25 01:14:28;;;;;;;0.20;0.10;;;;;;;;;;4981599;28;20045;-69
2022/04/25 01:16:54;;;;;;;0.10;0.10;;;;;;;;;;4981055;28;20061;-69
2022/04/25 01:19:19;;;;;;;0.20;0.20;;;;;;;;;;4980065;28;20041;-69
2022/04/25 01:21:52;;;;;;;0.10;0.10;;;;;;;;;;4981254;28;20053;-69
2022/04/25 01:27:17;;;;;;;0.20;0.20;;;;;;;;;;4981039;28;20125;-69
2022/04/25 01:29:44;;;;;;;0.08;0.08;;;;;;;;;;4979982;28;20088;-68
2022/04/25 01:32:10;;;;;;;0.10;0.10;;;;;;;;;;4981325;28;20046;-69
2022/04/25 01:34:37;;;;;;;0.20;0.20;;;;;;;;;;4978885;28;20085;-69
2022/04/25 01:37:11;;;;;;;0.20;0.20;;;;;;;;;;4981057;28;20038;-69
2022/04/25 01:39:42;;;;;;;0.20;0.20;;;;;;;;;;4980057;28;20034;-69
2022/04/25 01:42:08;;;;;;;0.10;0.10;;;;;;;;;;4979888;28;20057;-69
2022/04/25 01:44:34;;;;;;;0.10;0.10;;;;;;;;;;4980988;28;20038;-69
2022/04/25 01:47:00;;;;;;;0.13;0.13;;;;;;;;;;4980456;28;20080;-68
2022/04/25 01:49:26;;;;;;;0.13;0.13;;;;;;;;;;4973403;28;20407;-69
2022/04/25 01:51:52;;;;;;;0.20;0.20;;;;;;;;;;4980033;28;20038;-69
2022/04/25 01:54:25;;;;;;;0.10;0.10;;;;;;;;;;4982288;28;20036;-69
2022/04/25 01:56:55;;;;;;;0.25;0.25;;;;;;;;;;4987535;28;20557;-69
2022/04/25 01:59:22;;;;;;;0.40;0.20;;;;;;;;;;4986895;28;20026;-69
2022/04/25 02:01:48;;;;;;;0.20;0.20;;;;;;;;;;4987468;28;20054;-69
2022/04/25 02:04:18;;;;;;;0.10;0.10;;;;;;;;;;4986206;28;20141;-69
2022/04/25 02:06:44;;;;;;;0.20;0.20;;;;;;;;;;4987773;28;20107;-70
2022/04/25 02:09:09;;;;;;;0.10;0.10;;;;;;;;;;4986416;28;20527;-69
2022/04/25 02:11:35;;;;;;;0.10;0.10;;;;;;;;;;4987576;28;20045;-70
2022/04/25 02:14:01;;;;;;;0.20;0.20;;;;;;;;;;4985879;28;20133;-70
2022/04/25 02:16:26;;;;;;;0.20;0.20;;;;;;;;;;4987404;28;20030;-69
2022/04/25 02:18:53;;;;;;;0.08;0.08;;;;;;;;;;4986189;28;20061;-70
2022/04/25 02:21:19;;;;;;;0.10;0.10;;;;;;;;;;4986873;28;20148;-69
2022/04/25 02:23:44;;;;;;;0.10;0.10;;;;;;;;;;4987175;28;20129;-69
2022/04/25 02:26:10;;;;;;;0.47;0.28;;;;;;;;;;4968588;28;20176;-70
2022/04/25 02:28:37;;;;;;;0.80;0.28;;;;;;;;;;4987131;28;20465;-69
2022/04/25 02:31:04;;;;;;;0.10;0.10;;;;;;;;;;4986815;28;20050;-69
2022/04/25 02:33:31;;;;;;;0.35;0.22;;;;;;;;;;4987197;28;20042;-70
2022/04/25 02:35:58;;;;;;;0.20;0.20;;;;;;;;;;4986528;28;20113;-69
2022/04/25 02:38:24;;;;;;;0.95;0.20;;;;;;;;;;4968737;28;20092;-69
2022/04/25 02:41:04;;;;;;;2.05;0.20;;;;;;;;;;4987373;28;20117;-69
2022/04/25 02:43:36;;;;;;;0.10;0.10;;;;;;;;;;4987080;28;20034;-69
2022/04/25 02:46:03;;;;;;;0.20;0.20;;;;;;;;;;4986053;28;20097;-69
2022/04/25 02:48:30;;;;;;;0.10;0.10;;;;;;;;;;4985570;28;20054;-70
2022/04/25 02:50:55;;;;;;;0.20;0.20;;;;;;;;;;4986769;28;20042;-69
2022/04/25 02:53:24;;;;;;;4.75;0.47;;;;;;;;;;4987078;28;20026;-69
2022/04/25 02:55:53;;;;;;;0.10;0.10;;;;;;;;;;4986813;28;20233;-69
2022/04/25 02:58:22;;;;;;;0.10;0.10;;;;;;;;;;4985201;28;20060;-70
2022/04/25 03:00:49;;;;;;;0.10;0.10;;;;;;;;;;4986952;28;20052;-68
2022/04/25 03:03:16;;;;;;;1.35;0.10;;;;;;;;;;4986557;28;20042;-69
2022/04/25 03:05:46;;;;;;;0.20;0.10;;;;;;;;;;4985543;28;20049;-68
2022/04/25 03:08:13;;;;;;;0.17;0.17;;;;;;;;;;4981510;28;20046;-69
2022/04/25 03:10:40;;;;;;;0.20;0.20;;;;;;;;;;4983651;28;20042;-69
2022/04/25 03:13:08;;;;;;;0.17;0.17;;;;;;;;;;4983256;28;20042;-69
2022/04/25 03:15:37;;;;;;;0.10;0.10;;;;;;;;;;4983240;28;20518;-69
2022/04/25 03:18:02;;;;;;;0.20;0.20;;;;;;;;;;4983042;28;20053;-69
2022/04/25 03:20:28;;;;;;;0.10;0.10;;;;;;;;;;4982343;28;20035;-69
2022/04/25 03:22:56;;;;;;;0.20;0.20;;;;;;;;;;4983276;28;20096;-69
2022/04/25 03:25:21;;;;;;;0.20;0.20;;;;;;;;;;4982910;28;20030;-69
2022/04/25 03:27:47;;;;;;;0.10;0.10;;;;;;;;;;4983156;28;20037;-69
2022/04/25 03:30:12;;;;;;;0.10;0.10;;;;;;;;;;4981893;28;20075;-69
2022/04/25 03:32:42;;;;;;;0.20;0.20;;;;;;;;;;4982931;28;20037;-69
2022/04/25 03:35:08;;;;;;;0.30;0.30;;;;;;;;;;4982759;28;20053;-68
2022/04/25 03:37:36;;;;;;;1.10;0.17;;;;;;;;;;4982944;28;20042;-68
2022/04/25 03:40:04;;;;;;;0.20;0.20;;;;;;;;;;4982640;28;20033;-69
2022/04/25 03:42:30;;;;;;;0.20;0.20;;;;;;;;;;4982323;28;20057;-70
2022/04/25 03:44:56;;;;;;;0.30;0.30;;;;;;;;;;4982662;28;20050;-69
2022/04/25 03:47:21;;;;;;;0.20;0.20;;;;;;;;;;4982740;28;20075;-70
2022/04/25 03:49:47;;;;;;;0.10;0.10;;;;;;;;;;4978193;28;20499;-69
2022/04/25 03:52:12;;;;;;;0.25;0.25;;;;;;;;;;4981855;28;20042;-70
2022/04/25 03:57:22;;;;;;;0.17;0.17;;;;;;;;;;4981409;28;20038;-70
2022/04/25 03:59:47;;;;;;;0.40;0.40;;;;;;;;;;4981323;28;20038;-69
2022/04/25 04:02:12;;;;;;;0.20;0.20;;;;;;;;;;4982522;28;20166;-69
2022/04/25 04:04:38;;;;;;;0.28;0.28;;;;;;;;;;4981899;28;20049;-69
2022/04/25 04:07:03;;;;;;;0.35;0.25;;;;;;;;;;4982390;28;20121;-69
2022/04/25 04:09:47;;;;;;;0.20;0.20;;;;;;;;;;4981808;28;20403;-69
2022/04/25 04:12:18;;;;;;;1.17;0.20;;;;;;;;;;4982471;28;20038;-67
2022/04/25 04:14:44;;;;;;;0.22;0.22;;;;;;;;;;4981289;28;20395;-68
2022/04/25 04:17:10;;;;;;;0.13;0.10;;;;;;;;;;4981912;28;20089;-69
2022/04/25 04:19:36;;;;;;;0.20;0.20;;;;;;;;;;4981618;28;20042;-69
2022/04/25 04:22:03;;;;;;;0.10;0.10;;;;;;;;;;4980582;28;20093;-68
2022/04/25 04:24:31;;;;;;;0.30;0.30;;;;;;;;;;4979947;28;20457;-69
2022/04/25 04:27:01;;;;;;;0.10;0.10;;;;;;;;;;4980679;28;20487;-68
2022/04/25 04:29:36;;;;;;;0.20;0.20;;;;;;;;;;4981860;28;20061;-69
2022/04/25 04:32:05;;;;;;;0.50;0.20;;;;;;;;;;4981907;28;20034;-68
2022/04/25 04:34:31;;;;;;;0.52;0.20;;;;;;;;;;4982121;28;20034;-68
2022/04/25 04:36:57;;;;;;;0.25;0.25;;;;;;;;;;4980716;28;20064;-69
2022/04/25 04:39:22;;;;;;;0.25;0.25;;;;;;;;;;4981653;28;20077;-69
2022/04/25 04:41:48;;;;;;;0.20;0.20;;;;;;;;;;4982152;28;20049;-69
2022/04/25 04:44:14;;;;;;;0.30;0.30;;;;;;;;;;4982167;28;20105;-70
2022/04/25 04:46:40;;;;;;;0.30;0.30;;;;;;;;;;4981566;28;20058;-70
2022/04/25 04:49:06;;;;;;;0.50;0.50;;;;;;;;;;4980334;28;20050;-68
2022/04/25 04:51:31;;;;;;;0.28;0.28;;;;;;;;;;4981647;28;20111;-70
2022/04/25 04:53:59;;;;;;;0.38;0.38;;;;;;;;;;4981937;28;20062;-70
2022/04/25 04:56:35;;;;;;;0.63;0.60;;;;;;;;;;4980691;28;20045;-70
2022/04/25 04:59:01;;;;;;;0.70;0.70;;;;;;;;;;4979232;28;20048;-68
2022/04/25 05:01:27;;;;;;;0.82;0.68;;;;;;;;;;4980731;28;20503;-72
2022/04/25 05:03:55;;;;;;;1.05;0.90;;;;;;;;;;4963441;28;20124;-71
2022/04/25 05:06:21;;;;;;;1.27;0.80;;;;;;;;;;4976053;28;20038;-71
2022/04/25 05:08:46;;;;;;;0.90;0.90;;;;;;;;;;4980254;28;20038;-70
2022/04/25 05:11:11;;;;;;;3.63;0.90;;;;;;;;;;4980938;28;20608;-70
2022/04/25 05:13:37;;;;;;;1.08;0.98;;;;;;;;;;4980752;28;20126;-69
2022/04/25 05:16:04;;;;;;;1.05;0.80;;;;;;;;;;4977449;28;20417;-69
2022/04/25 05:18:32;;;;;;;1.52;1.35;;;;;;;;;;4978073;28;20077;-71
2022/04/25 05:20:58;;;;;;;2.10;1.08;;;;;;;;;;4978370;28;20038;-71
2022/04/25 05:23:24;;;;;;;1.10;0.80;;;;;;;;;;4979046;28;20026;-69
2022/04/25 05:25:49;;;;;;;1.05;1.00;;;;;;;;;;4978887;28;20065;-71
2022/04/25 05:28:15;;;;;;;2.33;0.70;;;;;;;;;;4980125;28;20818;-69
2022/04/25 05:30:40;;;;;;;0.70;0.70;;;;;;;;;;4978684;28;20036;-69
2022/04/25 05:33:06;;;;;;;0.85;0.80;;;;;;;;;;4978930;28;20113;-70
2022/04/25 05:35:33;;;;;;;1.15;1.05;;;;;;;;;;4981079;28;20050;-71
2022/04/25 05:38:00;;;;;;;3.13;1.00;;;;;;;;;;4981365;28;20109;-71
2022/04/25 05:40:26;;;;;;;1.10;1.00;;;;;;;;;;4981272;28;20058;-70
2022/04/25 05:42:55;;;;;;;0.52;0.52;;;;;;;;;;4980800;28;20447;-70
2022/04/25 05:45:22;;;;;;;0.75;0.70;;;;;;;;;;4980878;28;20036;-71
2022/04/25 05:47:49;;;;;;;0.80;0.80;;;;;;;;;;4981437;28;20487;-69
2022/04/25 05:53:00;;;;;;;5.57;1.10;;;;;;;;;;4979998;28;20038;-71
2022/04/25 05:55:27;;;;;;;0.80;0.80;;;;;;;;;;4978584;28;20120;-71
2022/04/25 05:57:53;;;;;;;0.90;0.88;;;;;;;;;;4979117;28;20664;-71
2022/04/25 06:00:18;;;;;;;1.13;1.00;;;;;;;;;;4978802;28;20048;-71
2022/04/25 06:02:44;;;;;;;1.20;1.10;;;;;;;;;;4979316;28;20049;-72
2022/04/25 06:05:11;;;;;;;2.20;1.08;;;;;;;;;;4978163;28;20034;-71
2022/04/25 06:07:40;;;;;;;1.80;1.52;;;;;;;;;;4979542;28;20046;-69
2022/04/25 06:10:07;;;;;;;2.53;1.35;;;;;;;;;;4980646;28;20051;-71
2022/04/25 06:12:32;;;;;;;8.90;1.90;;;;;;;;;;4973911;28;20035;-72
2022/04/25 06:15:00;;;;;;;2.55;1.92;;;;;;;;;;4979216;28;20376;-70
2022/04/25 06:17:26;;;;;;;2.55;1.45;;;;;;;;;;4979362;28;20049;-71
2022/04/25 06:19:52;;;;;;;2.03;1.58;;;;;;;;;;4962370;28;20579;-71
2022/04/25 06:22:19;;;;;;;2.28;2.08;;;;;;;;;;4980079;28;20474;-71
2022/04/25 06:24:44;;;;;;;1.75;1.38;;;;;;;;;;4980412;28;20034;-72
2022/04/25 06:27:10;;;;;;;2.30;2.10;;;;;;;;;;4979593;28;20057;-72
2022/04/25 06:29:36;;;;;;;2.42;2.15;;;;;;;;;;4980261;28;20046;-72
2022/04/25 06:32:05;;;;;;;2.90;2.33;;;;;;;;;;4980470;28;20188;-72
2022/04/25 06:34:31;;;;;;;5.90;2.35;;;;;;;;;;4980402;28;20208;-70
2022/04/25 06:36:57;;;;;;;9.18;2.80;;;;;;;;;;4980360;28;20186;-70
2022/04/25 06:39:22;;;;;;;4.18;2.97;;;;;;;;;;4978013;28;20046;-71
2022/04/25 06:41:48;;;;;;;3.25;2.65;;;;;;;;;;4982573;28;20034;-72
2022/04/25 06:44:13;;;;;;;4.53;3.00;;;;;;;;;;4982598;28;20911;-71
2022/04/25 06:46:39;;;;;;;4.15;2.58;;;;;;;;;;4984169;28;20069;-70
2022/04/25 06:49:19;;;;;;;2.63;2.35;;;;;;;;;;4982919;28;20042;-70
2022/04/25 06:51:45;;;;;;;7.05;3.20;;;;;;;;;;4983723;28;20907;-70
2022/04/25 06:54:11;;;;;;;5.30;4.50;;;;;;;;;;4984018;28;20089;-70
2022/04/25 06:56:37;;;;;;;6.95;3.72;;;;;;;;;;4982463;28;20034;-70
2022/04/25 06:59:02;;;;;;;7.15;5.15;;;;;;;;;;4983181;28;20410;-71
2022/04/25 07:01:28;;;;;;;8.32;5.93;;;;;;;;;;4982708;28;20030;-71
2022/04/25 07:03:53;;;;;;;6.93;4.97;;;;;;;;;;4983821;28;20038;-71
2022/04/25 07:06:18;;;;;;;8.65;5.95;;;;;;;;;;4982590;28;20107;-71
2022/04/25 07:08:44;;;;;;;6.85;5.40;;;;;;;;;;4983239;28;20126;-71
2022/04/25 07:11:09;;;;;;;7.82;6.28;;;;;;;;;;4982311;28;20061;-70
2022/04/25 07:13:35;;;;;;;6.20;5.18;;;;;;;;;;4983355;28;20030;-72
2022/04/25 07:16:00;;;;;;;4.88;4.35;;;;;;;;;;4982829;28;20046;-71
2022/04/25 07:18:26;;;;;;;5.90;4.78;;;;;;;;;;4981451;28;20475;-70
2022/04/25 07:20:51;;;;;;;6.68;5.45;;;;;;;;;;4983308;28;20038;-70
2022/04/25 07:28:52;;;;;;;7.82;5.65;;;;;;;;;;4982770;28;20053;-71
2022/04/25 07:31:19;;;;;;;8.65;6.50;;;;;;;;;;4983079;28;20030;-71
2022/04/25 07:33:45;;;;;;;6.15;4.82;;;;;;;;;;4981753;28;20072;-72
2022/04/25 07:36:15;;;;;;;9.93;6.75;;;;;;;;;;4983199;28;20042;-72
2022/04/25 07:38:40;;;;;;;6.57;5.15;;;;;;;;;;4981880;28;20042;-71
2022/04/25 07:41:07;;;;;;;9.15;5.80;;;;;;;;;;4983137;28;20042;-71
2022/04/25 07:43:34;;;;;;;7.88;6.40;;;;;;;;;;4982417;28;20499;-71
2022/04/25 07:46:00;;;;;;;7.93;6.32;;;;;;;;;;4982617;28;20515;-71
2022/04/25 07:48:26;;;;;;;10.57;7.35;;;;;;;;;;4982290;28;20042;-71
2022/04/25 07:50:52;;;;;;;8.50;5.78;;;;;;;;;;4982740;28;20081;-73
2022/04/25 07:53:17;;;;;;;9.63;6.75;;;;;;;;;;4982093;28;20038;-71
2022/04/25 07:55:42;;;;;;;9.23;6.20;;;;;;;;;;4981703;28;20038;-71
2022/04/25 07:58:08;;;;;;;7.55;6.13;;;;;;;;;;4982578;28;20130;-71
2022/04/25 08:00:35;;;;;;;7.30;5.72;;;;;;;;;;4981938;28;20034;-71
2022/04/25 08:03:04;;;;;;;5.35;4.53;;;;;;;;;;4982572;28;20034;-72
2022/04/25 08:05:29;;;;;;;7.93;6.00;;;;;;;;;;4981857;28;20050;-71
2022/04/25 08:07:54;;;;;;;7.22;5.80;;;;;;;;;;4981872;28;20045;-71
2022/04/25 08:10:20;;;;;;;5.32;4.10;;;;;;;;;;4981329;28;20031;-73
2022/04/25 08:18:14;;;;;;;9.05;4.95;;;;;;;;;;4981586;28;20038;-70
2022/04/25 08:20:41;;;;;;;6.55;5.47;;;;;;;;;;4963603;28;20387;-71
2022/04/25 08:23:09;;;;;;;6.43;4.95;;;;;;;;;;4982253;28;20146;-70
2022/04/25 08:25:36;;;;;;;5.80;4.55;;;;;;;;;;4982318;28;20450;-72
2022/04/25 08:28:05;;;;;;;6.40;5.03;;;;;;;;;;4981649;28;20034;-71
2022/04/25 08:30:30;;;;;;;7.43;4.63;;;;;;;;;;4981295;28;20483;-72
2022/04/25 08:32:56;;;;;;;6.60;5.30;;;;;;;;;;4981889;28;20030;-71
2022/04/25 08:35:22;;;;;;;8.75;5.60;;;;;;;;;;4982624;28;20069;-71
2022/04/25 08:37:48;;;;;;;7.07;4.05;;;;;;;;;;4982090;28;20113;-70
2022/04/25 08:40:14;;;;;;;12.23;6.60;;;;;;;;;;4980647;28;20057;-70
2022/04/25 08:42:40;;;;;;;8.25;6.70;;;;;;;;;;4981242;28;20128;-69
2022/04/25 08:45:06;;;;;;;18.88;7.55;;;;;;;;;;4982549;28;20100;-70
2022/04/25 08:47:37;;;;;;;9.13;7.22;;;;;;;;;;4982100;28;20042;-72
2022/04/25 08:50:02;;;;;;;8.45;7.38;;;;;;;;;;4980615;28;20038;-72
2022/04/25 08:52:29;;;;;;;8.73;7.15;;;;;;;;;;4981089;28;20022;-72
2022/04/25 08:54:57;;;;;;;10.45;7.45;;;;;;;;;;4981467;28;20096;-71
2022/04/25 08:57:28;;;;;;;9.93;6.95;;;;;;;;;;4981416;28;21156;-72
2022/04/25 08:59:56;;;;;;;11.40;7.18;;;;;;;;;;4981122;28;20030;-72
2022/04/25 09:02:22;;;;;;;9.90;7.47;;;;;;;;;;4980047;28;20040;-72
2022/04/25 09:04:50;;;;;;;9.85;7.47;;;;;;;;;;4980720;28;20418;-71
2022/04/25 09:07:17;;;;;;;9.18;6.93;;;;;;;;;;4981220;28;20038;-71
2022/04/25 09:09:43;;;;;;;7.50;6.43;;;;;;;;;;4980702;28;20799;-72
2022/04/25 09:12:11;;;;;;;7.20;6.50;;;;;;;;;;4979021;28;20073;-72
2022/04/25 09:14:39;;;;;;;8.30;7.00;;;;;;;;;;4980660;28;20043;-72
2022/04/25 09:17:05;;;;;;;8.73;5.18;;;;;;;;;;4980748;28;20042;-71
2022/04/25 09:19:32;;;;;;;11.45;7.30;;;;;;;;;;4979581;28;20053;-72
2022/04/25 09:21:58;;;;;;;9.40;7.22;;;;;;;;;;4979364;28;20042;-71
2022/04/25 09:24:27;;;;;;;10.65;7.75;;;;;;;;;;4978608;28;21066;-72
2022/04/25 09:27:10;;;;;;;7.80;6.03;;;;;;;;;;4979206;28;20038;-73
2022/04/25 09:29:37;;;;;;;6.38;5.43;;;;;;;;;;4979175;28;20034;-72
2022/04/25 09:32:04;;;;;;;6.30;5.43;;;;;;;;;;4980723;28;20134;-71
2022/04/25 09:37:15;;;;;;;9.02;6.80;;;;;;;;;;4980758;28;20049;-72
2022/04/25 09:39:41;;;;;;;7.20;6.25;;;;;;;;;;4980915;28;20062;-71
2022/04/25 09:42:07;;;;;;;6.30;5.60;;;;;;;;;;4979769;28;20511;-72
2022/04/25 09:44:52;;;;;;;8.88;7.10;;;;;;;;;;4963540;28;20034;-72
2022/04/25 09:47:36;;;;;;;8.73;6.65;;;;;;;;;;4980481;28;20125;-71
2022/04/25 09:50:01;;;;;;;8.07;5.70;;;;;;;;;;4979825;28;20092;-72
2022/04/25 09:52:29;;;;;;;6.50;5.45;;;;;;;;;;4980111;28;20039;-71
2022/04/25 09:54:54;;;;;;;7.38;6.22;;;;;;;;;;4980941;28;20434;-72
2022/04/25 09:57:32;;;;;;;8.40;6.28;;;;;;;;;;4962412;28;20115;-72
2022/04/25 09:59:58;;;;;;;7.53;5.15;;;;;;;;;;4980577;28;20042;-71
2022/04/25 10:02:23;;;;;;;7.00;5.78;;;;;;;;;;4979661;28;20037;-71
2022/04/25 10:04:49;;;;;;;6.97;5.32;;;;;;;;;;4980874;28;20034;-71
2022/04/25 10:07:16;;;;;;;8.88;6.53;;;;;;;;;;4979675;28;20038;-71
2022/04/25 10:09:44;;;;;;;8.18;6.20;;;;;;;;;;4980203;28;20043;-72
2022/04/25 10:12:10;;;;;;;7.20;6.25;;;;;;;;;;4980868;28;20039;-71
2022/04/25 10:14:36;;;;;;;8.10;6.43;;;;;;;;;;4979650;28;20057;-73
2022/04/25 10:17:03;;;;;;;11.25;6.35;;;;;;;;;;4983031;28;20081;-73
2022/04/25 10:19:29;;;;;;;7.75;6.03;;;;;;;;;;4982700;28;20058;-72
2022/04/25 10:21:55;;;;;;;5.18;4.68;;;;;;;;;;4983226;28;20035;-70
2022/04/25 10:24:22;;;;;;;6.78;5.88;;;;;;;;;;4983536;28;20034;-72
2022/04/25 10:26:49;;;;;;;8.32;5.50;;;;;;;;;;4984096;28;20046;-72
2022/04/25 10:29:22;;;;;;;6.45;5.38;;;;;;;;;;4965670;28;20042;-73
2022/04/25 10:31:55;;;;;;;5.45;4.72;;;;;;;;;;4984058;28;20380;-72
2022/04/25 10:34:46;;;;;;;7.82;5.45;;;;;;;;;;4984466;28;20042;-72
2022/04/25 10:37:48;;;;;;;6.97;5.55;;;;;;;;;;4982922;28;20053;-72
2022/04/25 10:44:09;;;;;;;6.03;5.38;;;;;;;;;;4922364;29;20127;-73
2022/04/25 10:46:02;;;;;;;6.97;6.10;;;;;;;;;;4983503;28;20034;-72
2022/04/25 10:48:29;;;;;;;7.43;6.35;;;;;;;;;;4983931;28;20461;-72
2022/04/25 10:51:13;;;;;;;5.72;5.10;;;;;;;;;;4982681;28;20042;-73
2022/04/25 10:54:01;;;;;;;6.53;5.82;;;;;;;;;;4983507;28;20078;-71
2022/04/25 10:56:30;;;;;;;7.80;5.30;;;;;;;;;;4982950;28;20044;-72
2022/04/25 10:59:22;;;;;;;6.55;5.30;;;;;;;;;;4981955;28;20038;-73
2022/04/25 11:01:48;;;;;;;6.55;4.82;;;;;;;;;;4981092;28;20038;-71
2022/04/25 11:04:15;;;;;;;6.38;5.30;;;;;;;;;;4984004;28;20061;-72
2022/04/25 11:06:41;;;;;;;6.00;5.13;;;;;;;;;;4983902;28;20143;-72
2022/04/25 11:09:06;;;;;;;5.57;4.63;;;;;;;;;;4982471;28;20977;-72
2022/04/25 11:11:52;;;;;;;9.55;5.45;;;;;;;;;;4982929;28;20034;-72
2022/04/25 11:14:18;;;;;;;6.40;5.25;;;;;;;;;;4983448;28;20030;-71
2022/04/25 11:17:13;;;;;;;6.78;5.90;;;;;;;;;;4983594;28;20502;-71
2022/04/25 11:19:47;;;;;;;6.80;5.35;;;;;;;;;;4982105;28;20785;-70
2022/04/25 11:22:40;;;;;;;8.45;5.40;;;;;;;;;;4982236;28;20042;-72
2022/04/25 11:25:25;;;;;;;6.50;5.82;;;;;;;;;;4983515;28;20133;-71
2022/04/25 11:28:08;;;;;;;7.97;6.60;;;;;;;;;;4981909;28;20149;-72
2022/04/25 11:30:35;;;;;;;8.90;5.90;;;;;;;;;;4981476;28;20038;-72
2022/04/25 11:33:12;;;;;;;5.80;5.00;;;;;;;;;;4981772;28;20053;-72
2022/04/25 11:35:39;;;;;;;7.70;5.68;;;;;;;;;;4983413;28;20527;-73
2022/04/25 11:38:06;;;;;;;6.88;5.88;;;;;;;;;;4983431;28;20038;-73
2022/04/25 11:40:32;;;;;;;8.55;5.63;;;;;;;;;;4981446;28;20026;-73
2022/04/25 11:42:59;;;;;;;5.60;4.80;;;;;;;;;;4982137;28;20034;-72
2022/04/25 11:45:27;;;;;;;7.70;5.07;;;;;;;;;;4983231;28;20041;-72
2022/04/25 11:47:53;;;;;;;6.95;5.95;;;;;;;;;;4983164;28;20375;-72
2022/04/25 11:50:23;;;;;;;6.90;5.85;;;;;;;;;;4983059;28;20715;-71
2022/04/25 11:52:54;;;;;;;5.82;5.22;;;;;;;;;;4963939;28;20046;-71
2022/04/25 11:55:31;;;;;;;6.25;5.30;;;;;;;;;;4982974;28;20056;-72
2022/04/25 11:57:57;;;;;;;7.68;6.13;;;;;;;;;;4982913;28;20049;-72
2022/04/25 12:00:23;;;;;;;7.03;6.05;;;;;;;;;;4982250;28;20065;-72
2022/04/25 12:02:48;;;;;;;6.88;5.45;;;;;;;;;;4981608;28;20041;-71
2022/04/25 12:05:25;;;;;;;7.75;5.15;;;;;;;;;;4981951;28;20068;-71
2022/04/25 12:16:04;;;;;;;6.55;5.80;;;;;;;;;;4981700;28;20034;-72
2022/04/25 12:18:30;;;;;;;6.90;5.90;;;;;;;;;;4982481;28;20069;-74
2022/04/25 12:21:11;;;;;;;6.63;5.57;;;;;;;;;;4981903;28;20169;-72
2022/04/25 12:23:57;;;;;;;10.43;6.22;;;;;;;;;;4981828;28;20033;-73
2022/04/25 12:26:24;;;;;;;7.40;6.65;;;;;;;;;;4980401;28;20479;-74
2022/04/25 12:28:50;;;;;;;9.00;6.50;;;;;;;;;;4982069;28;20038;-73
2022/04/25 12:31:16;;;;;;;8.43;6.50;;;;;;;;;;4981722;28;20038;-73
2022/04/25 12:33:50;;;;;;;8.50;7.20;;;;;;;;;;4981870;28;20104;-72
2022/04/25 12:36:21;;;;;;;7.72;5.90;;;;;;;;;;4980396;28;20407;-73
2022/04/25 12:39:14;;;;;;;8.32;7.03;;;;;;;;;;4980176;28;20042;-72
2022/04/25 12:42:01;;;;;;;8.20;7.40;;;;;;;;;;4980797;28;20101;-73
2022/04/25 12:44:28;;;;;;;8.38;7.53;;;;;;;;;;4981709;28;20035;-72
2022/04/25 12:47:04;;;;;;;8.80;7.90;;;;;;;;;;4979357;28;20038;-71
2022/04/25 12:49:34;;;;;;;9.68;6.50;;;;;;;;;;4981016;28;20590;-70
2022/04/25 12:52:00;;;;;;;8.10;5.68;;;;;;;;;;4974695;28;20034;-71
2022/04/25 12:54:46;;;;;;;6.82;6.13;;;;;;;;;;4979137;28;20124;-73
2022/04/25 12:57:23;;;;;;;11.10;5.75;;;;;;;;;;4980058;28;20088;-71
2022/04/25 12:59:51;;;;;;;7.47;6.68;;;;;;;;;;4974045;28;20053;-70
2022/04/25 13:02:18;;;;;;;6.85;6.15;;;;;;;;;;4978592;28;20557;-71
2022/04/25 13:04:55;;;;;;;7.63;6.78;;;;;;;;;;4980096;28;20487;-70
2022/04/25 13:07:38;;;;;;;7.15;6.45;;;;;;;;;;4979706;28;20042;-71
2022/04/25 13:10:20;;;;;;;9.52;7.30;;;;;;;;;;4977985;28;20072;-71
2022/04/25 13:12:53;;;;;;;7.57;6.78;;;;;;;;;;4979339;28;20056;-71
2022/04/25 13:15:21;;;;;;;12.98;6.95;;;;;;;;;;4979791;28;20565;-70
2022/04/25 13:17:48;;;;;;;8.52;7.38;;;;;;;;;;4977191;28;20125;-70
2022/04/25 13:20:15;;;;;;;8.90;7.80;;;;;;;;;;4977705;28;20031;-70
2022/04/25 13:22:42;;;;;;;8.45;7.20;;;;;;;;;;4979847;28;20042;-70
2022/04/25 13:25:09;;;;;;;8.77;7.30;;;;;;;;;;4981428;28;20604;-71
2022/04/25 13:27:35;;;;;;;9.60;7.38;;;;;;;;;;4981432;28;20627;-72
2022/04/25 13:30:05;;;;;;;7.70;6.90;;;;;;;;;;4980374;28;20925;-72
2022/04/25 13:32:32;;;;;;;7.60;6.80;;;;;;;;;;4979175;28;20046;-71
2022/04/25 13:34:57;;;;;;;9.63;7.30;;;;;;;;;;4981018;28;20042;-71
2022/04/25 13:37:23;;;;;;;9.95;7.28;;;;;;;;;;4981114;28;20045;-71
2022/04/25 13:39:49;;;;;;;8.93;7.35;;;;;;;;;;4980673;28;20042;-70
2022/04/25 13:42:14;;;;;;;8.07;7.28;;;;;;;;;;4979811;28;20049;-71
2022/04/25 13:44:40;;;;;;;9.45;7.45;;;;;;;;;;4980195;28;20046;-70
2022/04/25 13:47:06;;;;;;;11.00;7.20;;;;;;;;;;4979872;28;20069;-71
2022/04/25 13:49:32;;;;;;;8.63;7.72;;;;;;;;;;4980335;28;20097;-72
2022/04/25 13:51:57;;;;;;;7.90;7.10;;;;;;;;;;4980145;28;20604;-73
2022/04/25 13:54:23;;;;;;;9.52;7.85;;;;;;;;;;4979181;28;20542;-76
2022/04/25 13:56:48;;;;;;;8.63;6.85;;;;;;;;;;4980631;28;21085;-72
2022/04/25 13:59:14;;;;;;;8.43;7.22;;;;;;;;;;4979993;28;20092;-71
2022/04/25 14:01:39;;;;;;;11.38;6.90;;;;;;;;;;4980565;28;20050;-71
2022/04/25 14:04:04;;;;;;;8.02;7.22;;;;;;;;;;4979222;28;20038;-72
2022/04/25 14:06:33;;;;;;;8.43;7.57;;;;;;;;;;4980806;28;20042;-72
2022/04/25 14:08:59;;;;;;;8.20;7.40;;;;;;;;;;4980298;28;20046;-72
2022/04/25 14:11:27;;;;;;;9.05;7.55;;;;;;;;;;4979973;28;20031;-71
2022/04/25 14:13:53;;;;;;;9.60;7.60;;;;;;;;;;4980650;28;20168;-74
2022/04/25 14:16:19;;;;;;;12.27;7.63;;;;;;;;;;4978506;28;20153;-72
2022/04/25 14:18:44;;;;;;;11.55;7.20;;;;;;;;;;4980724;28;20084;-71
2022/04/25 14:21:11;;;;;;;9.75;7.65;;;;;;;;;;4970569;28;20030;-72
2022/04/25 14:23:36;;;;;;;9.13;7.82;;;;;;;;;;4978298;28;20144;-72
2022/04/25 14:26:03;;;;;;;9.93;7.60;;;;;;;;;;4977275;28;20145;-70
2022/04/25 14:28:29;;;;;;;9.38;7.88;;;;;;;;;;4979186;28;20034;-71
2022/04/25 14:30:54;;;;;;;8.40;7.50;;;;;;;;;;4977853;28;20051;-71
2022/04/25 14:33:22;;;;;;;9.85;7.90;;;;;;;;;;4978940;28;20045;-71
2022/04/25 14:35:47;;;;;;;8.75;7.72;;;;;;;;;;4978760;28;20042;-71
2022/04/25 14:38:14;;;;;;;8.63;7.72;;;;;;;;;;4977843;28;20068;-71
2022/04/25 14:40:39;;;;;;;11.13;7.63;;;;;;;;;;4978337;28;20038;-71
2022/04/25 14:43:06;;;;;;;16.73;11.77;;;;;;;;;;4979479;28;20073;-71
2022/04/25 14:45:33;;;;;;;19.05;11.80;;;;;;;;;;4978904;28;20223;-71
2022/04/25 14:47:59;;;;;;;10.35;8.60;;;;;;;;;;4977987;28;20046;-71
2022/04/25 14:55:58;;;;;;;9.73;7.30;;;;;;;;;;4942591;28;20404;-72
2022/04/25 14:58:23;;;;;;;10.30;7.95;;;;;;;;;;4978464;28;20026;-71
2022/04/25 15:00:49;;;;;;;16.92;9.65;;;;;;;;;;4977570;28;20042;-70
2022/04/25 15:03:16;;;;;;;16.08;10.15;;;;;;;;;;4982788;28;20172;-71
2022/04/25 15:05:45;;;;;;;10.70;8.65;;;;;;;;;;4981763;28;20042;-71
2022/04/25 15:08:12;;;;;;;12.10;7.65;;;;;;;;;;4982422;28;20053;-71
2022/04/25 15:10:38;;;;;;;9.25;7.07;;;;;;;;;;4981079;28;20036;-71
2022/04/25 15:13:05;;;;;;;12.18;10.20;;;;;;;;;;4982995;28;20038;-71
2022/04/25 15:15:32;;;;;;;13.82;11.00;;;;;;;;;;4982404;28;20458;-70
2022/04/25 15:17:57;;;;;;;8.13;6.75;;;;;;;;;;4983364;28;20042;-71
2022/04/25 15:20:23;;;;;;;8.70;7.00;;;;;;;;;;4978655;28;20035;-72
2022/04/25 15:22:49;;;;;;;11.48;7.47;;;;;;;;;;4980822;28;20034;-71
2022/04/25 15:25:15;;;;;;;12.88;9.55;;;;;;;;;;4981142;28;20065;-71